sensor_id;sensor_type;location;lat;lon;timestamp;pressure;altitude;pressure_sealevel;temperature;humidity
5126;BME280;63008;53.112;8.896;2022-09-09T00:00:16;100792.31;;;14.57;88.01
5126;BME280;63008;53.112;8.896;2022-09-09T00:02:22;100795.09;;;14.57;88.04
5126;BME280;63008;53.112;8.896;2022-09-09T00:06:43;100784.38;;;14.55;87.99
5126;BME280;63008;53.112;8.896;2022-09-09T00:09:15;100788.22;;;14.51;88.12
5126;BME280;63008;53.112;8.896;2022-09-09T00:11:19;100784.66;;;14.50;88.10
5126;BME280;63008;53.112;8.896;2022-09-09T00:13:26;100785.00;;;14.49;88.11
5126;BME280;63008;53.112;8.896;2022-09-09T00:15:55;100782.34;;;14.52;88.07
5126;BME280;63008;53.112;8.896;2022-09-09T00:20:14;100773.38;;;14.40;88.12
5126;BME280;63008;53.112;8.896;2022-09-09T00:22:19;100777.38;;;14.42;88.11
5126;BME280;63008;53.112;8.896;2022-09-09T00:24:38;100786.03;;;14.41;88.00
5126;BME280;63008;53.112;8.896;2022-09-09T00:26:45;100774.59;;;14.42;87.74
5126;BME280;63008;53.112;8.896;2022-09-09T00:29:37;100776.47;;;14.38;87.96
5126;BME280;63008;53.112;8.896;2022-09-09T00:31:21;100784.75;;;14.38;88.08
5126;BME280;63008;53.112;8.896;2022-09-09T00:33:24;100783.69;;;14.43;87.84
5126;BME280;63008;53.112;8.896;2022-09-09T00:35:34;100777.94;;;14.32;87.90
5126;BME280;63008;53.112;8.896;2022-09-09T00:37:36;100780.31;;;14.34;87.96
5126;BME280;63008;53.112;8.896;2022-09-09T00:39:41;100785.03;;;14.33;87.82
5126;BME280;63008;53.112;8.896;2022-09-09T00:42:16;100785.84;;;14.34;87.75
5126;BME280;63008;53.112;8.896;2022-09-09T00:44:31;100780.31;;;14.34;87.77
5126;BME280;63008;53.112;8.896;2022-09-09T00:46:41;100779.00;;;14.28;87.88
5126;BME280;63008;53.112;8.896;2022-09-09T00:50:57;100778.38;;;14.19;88.41
5126;BME280;63008;53.112;8.896;2022-09-09T00:53:28;100779.19;;;14.19;88.46
5126;BME280;63008;53.112;8.896;2022-09-09T00:57:53;100774.97;;;14.25;88.32
5126;BME280;63008;53.112;8.896;2022-09-09T01:00:24;100781.31;;;14.26;88.26
5126;BME280;63008;53.112;8.896;2022-09-09T01:02:27;100779.81;;;14.28;88.27
5126;BME280;63008;53.112;8.896;2022-09-09T01:04:34;100780.25;;;14.30;88.34
5126;BME280;63008;53.112;8.896;2022-09-09T01:06:37;100779.00;;;14.28;88.40
5126;BME280;63008;53.112;8.896;2022-09-09T01:11:04;100774.19;;;14.25;88.80
5126;BME280;63008;53.112;8.896;2022-09-09T01:13:11;100782.91;;;14.27;88.95
5126;BME280;63008;53.112;8.896;2022-09-09T01:15:22;100778.66;;;14.29;88.90
5126;BME280;63008;53.112;8.896;2022-09-09T01:17:36;100781.03;;;14.31;88.71
5126;BME280;63008;53.112;8.896;2022-09-09T01:19:57;100779.81;;;14.28;88.84
5126;BME280;63008;53.112;8.896;2022-09-09T01:24:40;100781.84;;;14.31;88.94
5126;BME280;63008;53.112;8.896;2022-09-09T01:26:45;100771.25;;;14.33;89.17
5126;BME280;63008;53.112;8.896;2022-09-09T01:28:48;100776.84;;;14.37;88.77
5126;BME280;63008;53.112;8.896;2022-09-09T01:30:49;100779.16;;;14.35;88.93
5126;BME280;63008;53.112;8.896;2022-09-09T01:32:54;100768.91;;;14.35;88.99
5126;BME280;63008;53.112;8.896;2022-09-09T01:34:56;100775.69;;;14.38;88.64
5126;BME280;63008;53.112;8.896;2022-09-09T01:37:03;100774.44;;;14.35;88.69
5126;BME280;63008;53.112;8.896;2022-09-09T01:39:05;100774.09;;;14.37;88.73
5126;BME280;63008;53.112;8.896;2022-09-09T01:41:06;100770.88;;;14.35;88.58
5126;BME280;63008;53.112;8.896;2022-09-09T01:43:06;100766.59;;;14.37;88.74
5126;BME280;63008;53.112;8.896;2022-09-09T01:45:08;100756.28;;;14.34;88.61
5126;BME280;63008;53.112;8.896;2022-09-09T01:47:09;100762.16;;;14.33;88.51
5126;BME280;63008;53.112;8.896;2022-09-09T01:49:10;100762.97;;;14.33;88.38
5126;BME280;63008;53.112;8.896;2022-09-09T01:51:11;100751.81;;;14.30;88.41
5126;BME280;63008;53.112;8.896;2022-09-09T01:53:12;100754.16;;;14.28;88.28
5126;BME280;63008;53.112;8.896;2022-09-09T01:55:15;100755.94;;;14.20;88.16
5126;BME280;63008;53.112;8.896;2022-09-09T01:57:23;100755.38;;;14.15;88.56
5126;BME280;63008;53.112;8.896;2022-09-09T02:02:19;100754.22;;;14.16;88.39
5126;BME280;63008;53.112;8.896;2022-09-09T02:04:48;100753.31;;;14.12;88.19
5126;BME280;63008;53.112;8.896;2022-09-09T02:06:51;100751.28;;;14.09;88.15
5126;BME280;63008;53.112;8.896;2022-09-09T02:09:03;100752.44;;;14.08;88.16
5126;BME280;63008;53.112;8.896;2022-09-09T02:11:14;100750.47;;;14.08;88.02
5126;BME280;63008;53.112;8.896;2022-09-09T02:13:17;100744.16;;;14.08;88.06
5126;BME280;63008;53.112;8.896;2022-09-09T02:15:35;100754.31;;;14.04;88.07
5126;BME280;63008;53.112;8.896;2022-09-09T02:17:41;100748.69;;;14.00;88.07
5126;BME280;63008;53.112;8.896;2022-09-09T02:19:46;100752.63;;;13.99;88.07
5126;BME280;63008;53.112;8.896;2022-09-09T02:21:50;100742.31;;;13.96;88.21
5126;BME280;63008;53.112;8.896;2022-09-09T02:23:51;100751.03;;;13.98;88.10
5126;BME280;63008;53.112;8.896;2022-09-09T02:25:54;100750.22;;;13.98;87.92
5126;BME280;63008;53.112;8.896;2022-09-09T02:27:56;100752.47;;;13.92;88.08
5126;BME280;63008;53.112;8.896;2022-09-09T02:30:03;100748.53;;;13.93;88.23
5126;BME280;63008;53.112;8.896;2022-09-09T02:32:08;100744.25;;;13.96;88.11
5126;BME280;63008;53.112;8.896;2022-09-09T02:34:12;100761.06;;;13.91;88.23
5126;BME280;63008;53.112;8.896;2022-09-09T02:36:15;100755.22;;;13.92;88.19
5126;BME280;63008;53.112;8.896;2022-09-09T02:38:17;100748.88;;;13.92;88.30
5126;BME280;63008;53.112;8.896;2022-09-09T02:40:18;100756.38;;;13.91;88.33
5126;BME280;63008;53.112;8.896;2022-09-09T02:42:18;100752.81;;;13.91;88.29
5126;BME280;63008;53.112;8.896;2022-09-09T02:44:19;100751.53;;;13.88;88.41
5126;BME280;63008;53.112;8.896;2022-09-09T02:48:52;100755.91;;;13.89;88.43
5126;BME280;63008;53.112;8.896;2022-09-09T02:51:06;100756.38;;;13.91;88.27
5126;BME280;63008;53.112;8.896;2022-09-09T02:53:18;100743.72;;;13.90;87.96
5126;BME280;63008;53.112;8.896;2022-09-09T02:55:33;100740.50;;;13.88;88.11
5126;BME280;63008;53.112;8.896;2022-09-09T02:57:37;100740.34;;;13.81;88.28
5126;BME280;63008;53.112;8.896;2022-09-09T02:59:40;100749.88;;;13.84;87.81
5126;BME280;63008;53.112;8.896;2022-09-09T03:01:41;100745.13;;;13.84;87.85
5126;BME280;63008;53.112;8.896;2022-09-09T03:03:42;100744.25;;;13.80;87.93
5126;BME280;63008;53.112;8.896;2022-09-09T03:05:44;100747.28;;;13.75;87.86
5126;BME280;63008;53.112;8.896;2022-09-09T03:07:45;100745.69;;;13.74;87.98
5126;BME280;63008;53.112;8.896;2022-09-09T03:09:46;100753.97;;;13.74;87.79
5126;BME280;63008;53.112;8.896;2022-09-09T03:11:47;100755.91;;;13.74;88.09
5126;BME280;63008;53.112;8.896;2022-09-09T03:13:47;100753.97;;;13.74;87.87
5126;BME280;63008;53.112;8.896;2022-09-09T03:15:49;100758.13;;;13.68;87.87
5126;BME280;63008;53.112;8.896;2022-09-09T03:17:51;100753.66;;;13.64;88.21
5126;BME280;63008;53.112;8.896;2022-09-09T03:19:52;100753.59;;;13.60;88.33
5126;BME280;63008;53.112;8.896;2022-09-09T03:21:54;100750.44;;;13.62;88.26
5126;BME280;63008;53.112;8.896;2022-09-09T03:23:55;100757.94;;;13.61;88.28
5126;BME280;63008;53.112;8.896;2022-09-09T03:25:55;100760.25;;;13.59;88.27
5126;BME280;63008;53.112;8.896;2022-09-09T03:27:58;100768.59;;;13.63;88.24
5126;BME280;63008;53.112;8.896;2022-09-09T03:29:59;100773.44;;;13.66;88.08
5126;BME280;63008;53.112;8.896;2022-09-09T03:32:00;100774.94;;;13.63;88.11
5126;BME280;63008;53.112;8.896;2022-09-09T03:34:01;100776.53;;;13.64;88.51
5126;BME280;63008;53.112;8.896;2022-09-09T03:36:03;100771.56;;;13.70;88.42
5126;BME280;63008;53.112;8.896;2022-09-09T03:38:03;100775.94;;;13.71;88.47
5126;BME280;63008;53.112;8.896;2022-09-09T03:40:04;100777.63;;;13.75;88.28
5126;BME280;63008;53.112;8.896;2022-09-09T03:42:06;100773.28;;;13.74;88.65
5126;BME280;63008;53.112;8.896;2022-09-09T03:44:07;100773.44;;;13.81;88.40
5126;BME280;63008;53.112;8.896;2022-09-09T03:46:07;100776.97;;;13.82;88.37
5126;BME280;63008;53.112;8.896;2022-09-09T03:48:08;100772.63;;;13.81;88.35
5126;BME280;63008;53.112;8.896;2022-09-09T03:50:12;100775.47;;;13.84;88.27
5126;BME280;63008;53.112;8.896;2022-09-09T03:52:12;100784.22;;;13.86;88.31
5126;BME280;63008;53.112;8.896;2022-09-09T03:54:13;100774.44;;;13.89;88.16
5126;BME280;63008;53.112;8.896;2022-09-09T03:56:13;100778.44;;;13.91;88.26
5126;BME280;63008;53.112;8.896;2022-09-09T03:58:15;100770.69;;;13.97;88.27
5126;BME280;63008;53.112;8.896;2022-09-09T04:00:16;100775.84;;;13.98;88.36
5126;BME280;63008;53.112;8.896;2022-09-09T04:02:16;100775.47;;;14.00;88.44
5126;BME280;63008;53.112;8.896;2022-09-09T04:04:17;100776.84;;;14.06;88.43
5126;BME280;63008;53.112;8.896;2022-09-09T04:06:18;100769.09;;;14.11;88.27
5126;BME280;63008;53.112;8.896;2022-09-09T04:08:21;100774.97;;;14.10;88.13
5126;BME280;63008;53.112;8.896;2022-09-09T04:10:21;100769.63;;;14.17;87.90
5126;BME280;63008;53.112;8.896;2022-09-09T04:12:22;100765.28;;;14.16;88.11
5126;BME280;63008;53.112;8.896;2022-09-09T04:14:23;100767.56;;;14.14;87.87
5126;BME280;63008;53.112;8.896;2022-09-09T04:16:23;100770.31;;;14.14;87.80
5126;BME280;63008;53.112;8.896;2022-09-09T04:18:24;100771.47;;;14.13;87.87
5126;BME280;63008;53.112;8.896;2022-09-09T04:20:26;100773.22;;;14.17;87.86
5126;BME280;63008;53.112;8.896;2022-09-09T04:22:26;100779.63;;;14.21;87.94
5126;BME280;63008;53.112;8.896;2022-09-09T04:24:27;100774.91;;;14.22;87.77
5126;BME280;63008;53.112;8.896;2022-09-09T04:26:29;100786.50;;;14.27;87.64
5126;BME280;63008;53.112;8.896;2022-09-09T04:28:32;100777.50;;;14.30;87.56
5126;BME280;63008;53.112;8.896;2022-09-09T04:30:33;100777.22;;;14.35;87.32
5126;BME280;63008;53.112;8.896;2022-09-09T04:32:35;100776.94;;;14.40;86.95
5126;BME280;63008;53.112;8.896;2022-09-09T04:34:37;100787.25;;;14.43;86.95
5126;BME280;63008;53.112;8.896;2022-09-09T04:36:37;100781.28;;;14.41;87.02
5126;BME280;63008;53.112;8.896;2022-09-09T04:38:40;100786.81;;;14.41;87.23
5126;BME280;63008;53.112;8.896;2022-09-09T04:40:47;100787.78;;;14.49;87.21
5126;BME280;63008;53.112;8.896;2022-09-09T04:42:47;100779.69;;;14.40;87.03
5126;BME280;63008;53.112;8.896;2022-09-09T04:44:48;100785.59;;;14.39;87.22
5126;BME280;63008;53.112;8.896;2022-09-09T04:46:49;100795.53;;;14.43;87.30
5126;BME280;63008;53.112;8.896;2022-09-09T04:48:50;100784.03;;;14.41;87.35
5126;BME280;63008;53.112;8.896;2022-09-09T04:51:12;100794.41;;;14.44;87.07
5126;BME280;63008;53.112;8.896;2022-09-09T04:53:13;100800.38;;;14.46;87.41
5126;BME280;63008;53.112;8.896;2022-09-09T04:55:14;100795.53;;;14.43;87.35
5126;BME280;63008;53.112;8.896;2022-09-09T04:57:14;100803.56;;;14.48;87.19
5126;BME280;63008;53.112;8.896;2022-09-09T04:59:15;100802.31;;;14.46;87.43
5126;BME280;63008;53.112;8.896;2022-09-09T05:01:18;100804.28;;;14.45;87.22
5126;BME280;63008;53.112;8.896;2022-09-09T05:03:19;100805.88;;;14.46;87.24
5126;BME280;63008;53.112;8.896;2022-09-09T05:05:19;100808.00;;;14.53;87.02
5126;BME280;63008;53.112;8.896;2022-09-09T05:07:20;100808.72;;;14.50;87.38
5126;BME280;63008;53.112;8.896;2022-09-09T05:09:21;100810.06;;;14.56;87.12
5126;BME280;63008;53.112;8.896;2022-09-09T05:11:26;100813.25;;;14.58;86.66
5126;BME280;63008;53.112;8.896;2022-09-09T05:13:27;100812.00;;;14.55;86.89
5126;BME280;63008;53.112;8.896;2022-09-09T05:15:28;100816.28;;;14.53;86.80
5126;BME280;63008;53.112;8.896;2022-09-09T05:17:28;100815.16;;;14.54;86.98
5126;BME280;63008;53.112;8.896;2022-09-09T05:19:34;100813.88;;;14.51;86.79
5126;BME280;63008;53.112;8.896;2022-09-09T05:21:34;100824.41;;;14.46;87.02
5126;BME280;63008;53.112;8.896;2022-09-09T05:23:35;100820.13;;;14.48;87.21
5126;BME280;63008;53.112;8.896;2022-09-09T05:25:36;100822.09;;;14.48;86.92
5126;BME280;63008;53.112;8.896;2022-09-09T05:27:36;100820.84;;;14.45;87.06
5126;BME280;63008;53.112;8.896;2022-09-09T05:29:38;100819.25;;;14.44;87.02
5126;BME280;63008;53.112;8.896;2022-09-09T05:31:38;100812.47;;;14.42;87.01
5126;BME280;63008;53.112;8.896;2022-09-09T05:33:44;100819.16;;;14.41;86.93
5126;BME280;63008;53.112;8.896;2022-09-09T05:35:46;100813.97;;;14.39;86.86
5126;BME280;63008;53.112;8.896;2022-09-09T05:37:46;100828.22;;;14.41;86.91
5126;BME280;63008;53.112;8.896;2022-09-09T05:39:48;100822.00;;;14.44;86.82
5126;BME280;63008;53.112;8.896;2022-09-09T05:41:48;100826.63;;;14.40;86.96
5126;BME280;63008;53.112;8.896;2022-09-09T05:43:49;100831.72;;;14.38;87.00
5126;BME280;63008;53.112;8.896;2022-09-09T05:46:00;100835.72;;;14.41;87.04
5126;BME280;63008;53.112;8.896;2022-09-09T05:48:01;100842.84;;;14.42;86.81
5126;BME280;63008;53.112;8.896;2022-09-09T05:50:03;100838.31;;;14.49;86.51
5126;BME280;63008;53.112;8.896;2022-09-09T05:52:04;100837.06;;;14.47;86.74
5126;BME280;63008;53.112;8.896;2022-09-09T05:54:05;100835.81;;;14.44;87.00
5126;BME280;63008;53.112;8.896;2022-09-09T05:56:09;100838.59;;;14.44;86.72
5126;BME280;63008;53.112;8.896;2022-09-09T05:58:14;100836.72;;;14.48;86.60
5126;BME280;63008;53.112;8.896;2022-09-09T06:00:17;100837.44;;;14.45;86.55
5126;BME280;63008;53.112;8.896;2022-09-09T06:02:18;100840.69;;;14.51;86.43
5126;BME280;63008;53.112;8.896;2022-09-09T06:04:19;100832.41;;;14.51;86.05
5126;BME280;63008;53.112;8.896;2022-09-09T06:06:31;100835.53;;;14.49;86.33
5126;BME280;63008;53.112;8.896;2022-09-09T06:08:39;100843.38;;;14.47;86.47
5126;BME280;63008;53.112;8.896;2022-09-09T06:10:39;100837.06;;;14.47;86.46
5126;BME280;63008;53.112;8.896;2022-09-09T06:12:40;100834.19;;;14.43;86.59
5126;BME280;63008;53.112;8.896;2022-09-09T06:14:40;100841.34;;;14.44;86.63
5126;BME280;63008;53.112;8.896;2022-09-09T06:16:41;100839.47;;;14.48;86.24
5126;BME280;63008;53.112;8.896;2022-09-09T06:18:44;100842.56;;;14.47;86.42
5126;BME280;63008;53.112;8.896;2022-09-09T06:20:58;100843.56;;;14.54;86.43
5126;BME280;63008;53.112;8.896;2022-09-09T06:23:00;100845.16;;;14.55;86.28
5126;BME280;63008;53.112;8.896;2022-09-09T06:25:01;100834.91;;;14.56;86.23
5126;BME280;63008;53.112;8.896;2022-09-09T06:27:02;100836.88;;;14.55;86.45
5126;BME280;63008;53.112;8.896;2022-09-09T06:29:03;100835.69;;;14.56;86.50
5126;BME280;63008;53.112;8.896;2022-09-09T06:31:06;100833.47;;;14.62;86.17
5126;BME280;63008;53.112;8.896;2022-09-09T06:33:07;100830.44;;;14.66;86.35
5126;BME280;63008;53.112;8.896;2022-09-09T06:35:08;100834.88;;;14.71;86.40
5126;BME280;63008;53.112;8.896;2022-09-09T06:37:08;100842.97;;;14.79;86.10
5126;BME280;63008;53.112;8.896;2022-09-09T06:39:09;100834.69;;;14.79;86.21
5126;BME280;63008;53.112;8.896;2022-09-09T06:41:12;100839.16;;;14.84;85.89
5126;BME280;63008;53.112;8.896;2022-09-09T06:43:16;100841.63;;;14.89;86.17
5126;BME280;63008;53.112;8.896;2022-09-09T06:45:17;100837.41;;;14.95;86.07
5126;BME280;63008;53.112;8.896;2022-09-09T06:47:17;100835.59;;;15.02;85.71
5126;BME280;63008;53.112;8.896;2022-09-09T06:49:21;100843.16;;;15.05;85.40
5126;BME280;63008;53.112;8.896;2022-09-09T06:51:34;100843.63;;;15.07;85.27
5126;BME280;63008;53.112;8.896;2022-09-09T06:53:36;100848.34;;;15.07;85.04
5126;BME280;63008;53.112;8.896;2022-09-09T06:55:37;100849.22;;;15.11;85.23
5126;BME280;63008;53.112;8.896;2022-09-09T06:57:41;100856.00;;;15.13;84.86
5126;BME280;63008;53.112;8.896;2022-09-09T06:59:41;100840.72;;;15.19;85.07
5126;BME280;63008;53.112;8.896;2022-09-09T07:01:43;100847.84;;;15.20;85.10
5126;BME280;63008;53.112;8.896;2022-09-09T07:03:49;100847.69;;;15.29;84.08
5126;BME280;63008;53.112;8.896;2022-09-09T07:05:55;100847.47;;;15.37;84.22
5126;BME280;63008;53.112;8.896;2022-09-09T07:07:56;100843.75;;;15.49;83.12
5126;BME280;63008;53.112;8.896;2022-09-09T07:09:56;100844.78;;;15.60;83.39
5126;BME280;63008;53.112;8.896;2022-09-09T07:11:57;100845.22;;;15.62;83.50
5126;BME280;63008;53.112;8.896;2022-09-09T07:14:00;100840.09;;;15.64;83.53
5126;BME280;63008;53.112;8.896;2022-09-09T07:16:06;100848.50;;;15.67;82.45
5126;BME280;63008;53.112;8.896;2022-09-09T07:18:07;100852.19;;;15.75;83.27
5126;BME280;63008;53.112;8.896;2022-09-09T07:20:10;100846.00;;;15.81;83.18
5126;BME280;63008;53.112;8.896;2022-09-09T07:22:11;100850.72;;;15.81;83.72
5126;BME280;63008;53.112;8.896;2022-09-09T07:24:12;100848.34;;;15.79;83.32
5126;BME280;63008;53.112;8.896;2022-09-09T07:26:15;100848.38;;;15.83;82.67
5126;BME280;63008;53.112;8.896;2022-09-09T07:28:16;100857.19;;;15.88;83.35
5126;BME280;63008;53.112;8.896;2022-09-09T07:30:17;100868.47;;;15.99;82.56
5126;BME280;63008;53.112;8.896;2022-09-09T07:32:18;100857.78;;;16.20;81.22
5126;BME280;63008;53.112;8.896;2022-09-09T07:34:19;100853.16;;;16.27;80.61
5126;BME280;63008;53.112;8.896;2022-09-09T07:36:23;100864.31;;;16.31;80.63
5126;BME280;63008;53.112;8.896;2022-09-09T07:38:24;100856.91;;;16.35;80.43
5126;BME280;63008;53.112;8.896;2022-09-09T07:40:24;100866.28;;;16.49;80.63
5126;BME280;63008;53.112;8.896;2022-09-09T07:42:25;100864.34;;;16.53;80.07
5126;BME280;63008;53.112;8.896;2022-09-09T07:44:25;100868.38;;;16.56;80.16
5126;BME280;63008;53.112;8.896;2022-09-09T07:46:27;100868.41;;;16.59;80.31
5126;BME280;63008;53.112;8.896;2022-09-09T07:48:28;100864.53;;;16.63;80.33
5126;BME280;63008;53.112;8.896;2022-09-09T07:50:30;100872.09;;;16.66;80.82
5126;BME280;63008;53.112;8.896;2022-09-09T07:52:31;100866.28;;;16.75;80.65
5126;BME280;63008;53.112;8.896;2022-09-09T07:54:31;100874.03;;;16.88;80.77
5126;BME280;63008;53.112;8.896;2022-09-09T07:56:33;100866.25;;;16.97;80.65
5126;BME280;63008;53.112;8.896;2022-09-09T07:58:33;100872.72;;;17.05;80.66
5126;BME280;63008;53.112;8.896;2022-09-09T08:00:34;100871.13;;;17.07;78.89
5126;BME280;63008;53.112;8.896;2022-09-09T08:02:34;100867.78;;;17.21;77.58
5126;BME280;63008;53.112;8.896;2022-09-09T08:04:35;100875.19;;;17.39;78.37
5126;BME280;63008;53.112;8.896;2022-09-09T08:06:40;100872.19;;;17.51;77.14
5126;BME280;63008;53.112;8.896;2022-09-09T08:08:40;100871.91;;;17.60;77.52
5126;BME280;63008;53.112;8.896;2022-09-09T08:10:43;100874.47;;;17.75;77.59
5126;BME280;63008;53.112;8.896;2022-09-09T08:12:44;100865.16;;;17.94;76.81
5126;BME280;63008;53.112;8.896;2022-09-09T08:14:44;100873.25;;;18.09;77.41
5126;BME280;63008;53.112;8.896;2022-09-09T08:16:47;100858.41;;;18.28;75.38
5126;BME280;63008;53.112;8.896;2022-09-09T08:18:49;100865.66;;;18.39;74.92
5126;BME280;63008;53.112;8.896;2022-09-09T08:20:49;100863.38;;;18.51;74.84
5126;BME280;63008;53.112;8.896;2022-09-09T08:22:50;100867.50;;;18.68;73.77
5126;BME280;63008;53.112;8.896;2022-09-09T08:24:50;100868.69;;;18.67;73.18
5126;BME280;63008;53.112;8.896;2022-09-09T08:26:51;100871.16;;;18.75;72.57
5126;BME280;63008;53.112;8.896;2022-09-09T08:28:53;100873.94;;;18.75;72.80
5126;BME280;63008;53.112;8.896;2022-09-09T08:30:54;100869.63;;;18.85;73.41
5126;BME280;63008;53.112;8.896;2022-09-09T08:32:55;100874.78;;;18.86;71.44
5126;BME280;63008;53.112;8.896;2022-09-09T08:34:55;100865.22;;;18.84;72.28
5126;BME280;63008;53.112;8.896;2022-09-09T08:36:56;100870.78;;;18.84;71.53
5126;BME280;63008;53.112;8.896;2022-09-09T08:38:57;100871.72;;;18.98;71.96
5126;BME280;63008;53.112;8.896;2022-09-09T08:41:52;100872.31;;;19.25;70.67
5126;BME280;63008;53.112;8.896;2022-09-09T08:43:24;100875.94;;;19.32;70.54
5126;BME280;63008;53.112;8.896;2022-09-09T08:49:48;100877.75;;;19.86;68.85
5126;BME280;63008;53.112;8.896;2022-09-09T08:51:53;100877.09;;;20.17;67.67
5126;BME280;63008;53.112;8.896;2022-09-09T08:53:57;100889.50;;;20.43;65.76
5126;BME280;63008;53.112;8.896;2022-09-09T08:56:01;100874.34;;;20.51;65.39
5126;BME280;63008;53.112;8.896;2022-09-09T08:58:12;100890.69;;;20.49;65.60
5126;BME280;63008;53.112;8.896;2022-09-09T09:00:13;100884.31;;;20.70;65.22
5126;BME280;63008;53.112;8.896;2022-09-09T09:02:23;100875.53;;;20.71;64.79
5126;BME280;63008;53.112;8.896;2022-09-09T09:07:34;100883.88;;;21.34;66.38
5126;BME280;63008;53.112;8.896;2022-09-09T09:09:23;100885.88;;;21.27;62.17
5126;BME280;63008;53.112;8.896;2022-09-09T09:11:26;100886.72;;;20.92;62.83
5126;BME280;63008;53.112;8.896;2022-09-09T09:13:56;100885.50;;;20.72;62.46
5126;BME280;63008;53.112;8.896;2022-09-09T09:16:06;100877.53;;;20.46;64.52
5126;BME280;63008;53.112;8.896;2022-09-09T09:18:12;100876.75;;;20.42;65.09
5126;BME280;63008;53.112;8.896;2022-09-09T09:20:14;100886.66;;;20.19;65.23
5126;BME280;63008;53.112;8.896;2022-09-09T09:26:48;100891.06;;;20.31;65.47
5126;BME280;63008;53.112;8.896;2022-09-09T09:28:48;100887.09;;;20.59;65.01
5126;BME280;63008;53.112;8.896;2022-09-09T09:35:19;100887.50;;;20.47;63.73
5126;BME280;63008;53.112;8.896;2022-09-09T09:37:27;100884.28;;;20.28;65.92
5126;BME280;63008;53.112;8.896;2022-09-09T09:39:33;100889.47;;;20.30;65.36
5126;BME280;63008;53.112;8.896;2022-09-09T09:41:41;100887.03;;;20.14;65.15
5126;BME280;63008;53.112;8.896;2022-09-09T09:43:53;100881.06;;;20.09;65.54
5126;BME280;63008;53.112;8.896;2022-09-09T09:45:54;100893.09;;;20.61;64.32
5126;BME280;63008;53.112;8.896;2022-09-09T09:48:08;100885.44;;;21.46;62.86
5126;BME280;63008;53.112;8.896;2022-09-09T09:50:17;100892.78;;;22.12;59.46
5126;BME280;63008;53.112;8.896;2022-09-09T09:52:22;100888.03;;;22.66;57.57
5126;BME280;63008;53.112;8.896;2022-09-09T09:54:33;100886.03;;;23.11;55.99
5126;BME280;63008;53.112;8.896;2022-09-09T09:56:37;100880.31;;;23.25;55.24
5126;BME280;63008;53.112;8.896;2022-09-09T10:00:52;100881.66;;;21.98;59.27
5126;BME280;63008;53.112;8.896;2022-09-09T10:02:54;100883.38;;;21.71;59.02
5126;BME280;63008;53.112;8.896;2022-09-09T10:05:08;100883.91;;;21.17;60.33
5126;BME280;63008;53.112;8.896;2022-09-09T10:07:18;100881.16;;;20.89;60.73
5126;BME280;63008;53.112;8.896;2022-09-09T10:09:25;100883.53;;;20.62;63.53
5126;BME280;63008;53.112;8.896;2022-09-09T10:11:33;100892.59;;;20.11;67.91
5126;BME280;63008;53.112;8.896;2022-09-09T10:14:10;100892.38;;;19.62;70.29
5126;BME280;63008;53.112;8.896;2022-09-09T10:21:02;100888.00;;;19.00;73.31
5126;BME280;63008;53.112;8.896;2022-09-09T10:23:40;100894.06;;;19.16;72.51
5126;BME280;63008;53.112;8.896;2022-09-09T10:28:16;100895.84;;;19.41;71.38
5126;BME280;63008;53.112;8.896;2022-09-09T10:33:09;100892.03;;;19.77;71.50
5126;BME280;63008;53.112;8.896;2022-09-09T10:40:21;100907.44;;;20.63;67.14
5126;BME280;63008;53.112;8.896;2022-09-09T10:42:30;100893.09;;;21.07;65.69
5126;BME280;63008;53.112;8.896;2022-09-09T10:45:08;100894.16;;;21.62;63.37
5126;BME280;63008;53.112;8.896;2022-09-09T10:52:29;100897.75;;;22.95;58.91
5126;BME280;63008;53.112;8.896;2022-09-09T10:56:44;100891.72;;;23.00;56.14
5126;BME280;63008;53.112;8.896;2022-09-09T10:58:55;100893.09;;;22.82;57.46
5126;BME280;63008;53.112;8.896;2022-09-09T11:01:01;100897.53;;;22.76;58.83
5126;BME280;63008;53.112;8.896;2022-09-09T11:03:30;100892.06;;;22.62;58.07
5126;BME280;63008;53.112;8.896;2022-09-09T11:05:42;100883.50;;;22.79;59.07
5126;BME280;63008;53.112;8.896;2022-09-09T11:07:56;100892.63;;;22.90;58.68
5126;BME280;63008;53.112;8.896;2022-09-09T11:10:03;100891.59;;;22.67;58.29
5126;BME280;63008;53.112;8.896;2022-09-09T11:12:12;100891.56;;;22.74;57.52
5126;BME280;63008;53.112;8.896;2022-09-09T11:14:36;100879.13;;;23.22;55.96
5126;BME280;63008;53.112;8.896;2022-09-09T11:16:45;100882.28;;;23.95;54.85
5126;BME280;63008;53.112;8.896;2022-09-09T11:18:48;100881.41;;;24.57;52.99
5126;BME280;63008;53.112;8.896;2022-09-09T11:20:56;100893.25;;;24.42;51.20
5126;BME280;63008;53.112;8.896;2022-09-09T11:23:04;100882.44;;;24.90;49.69
5126;BME280;63008;53.112;8.896;2022-09-09T11:27:35;100880.94;;;26.44;46.81
5126;BME280;63008;53.112;8.896;2022-09-09T11:29:47;100882.91;;;25.73;47.45
5126;BME280;63008;53.112;8.896;2022-09-09T11:37:15;100877.03;;;24.79;49.59
5126;BME280;63008;53.112;8.896;2022-09-09T11:39:23;100876.66;;;24.51;50.61
5126;BME280;63008;53.112;8.896;2022-09-09T11:41:34;100882.28;;;24.25;51.02
5126;BME280;63008;53.112;8.896;2022-09-09T11:43:42;100880.34;;;23.92;53.74
5126;BME280;63008;53.112;8.896;2022-09-09T11:45:51;100885.31;;;23.77;53.00
5126;BME280;63008;53.112;8.896;2022-09-09T11:47:54;100877.06;;;23.63;52.52
5126;BME280;63008;53.112;8.896;2022-09-09T11:52:40;100875.88;;;23.27;55.24
5126;BME280;63008;53.112;8.896;2022-09-09T11:54:49;100876.00;;;23.17;54.86
5126;BME280;63008;53.112;8.896;2022-09-09T11:56:50;100879.94;;;22.75;55.63
5126;BME280;63008;53.112;8.896;2022-09-09T11:59:05;100876.56;;;22.50;56.83
5126;BME280;63008;53.112;8.896;2022-09-09T12:01:26;100873.50;;;22.24;56.90
5126;BME280;63008;53.112;8.896;2022-09-09T12:03:49;100885.72;;;21.83;59.08
5126;BME280;63008;53.112;8.896;2022-09-09T12:05:51;100888.22;;;21.46;61.89
5126;BME280;63008;53.112;8.896;2022-09-09T12:07:57;100896.25;;;21.12;62.89
5126;BME280;63008;53.112;8.896;2022-09-09T12:14:37;100910.88;;;20.05;68.75
5126;BME280;63008;53.112;8.896;2022-09-09T12:16:38;100892.47;;;19.83;67.68